sensor_id;sensor_type;location;lat;lon;timestamp;pressure;altitude;pressure_sealevel;temperature;humidity
56558;BME280;43358;50.356;12.456;2023-04-27T00:00:39;95629;;;1.6;87.4
56558;BME280;43358;50.356;12.456;2023-04-27T00:01:41;95631;;;1.6;87.4
56558;BME280;43358;50.356;12.456;2023-04-27T00:02:45;95632;;;1.6;87.4
56558;BME280;43358;50.356;12.456;2023-04-27T00:03:47;95630;;;1.6;87.6
56558;BME280;43358;50.356;12.456;2023-04-27T00:04:49;95631;;;1.6;87.3
56558;BME280;43358;50.356;12.456;2023-04-27T00:05:52;95629;;;1.6;87.4
56558;BME280;43358;50.356;12.456;2023-04-27T00:06:55;95627;;;1.6;87.2
56558;BME280;43358;50.356;12.456;2023-04-27T00:07:57;95628;;;1.6;87.1
56558;BME280;43358;50.356;12.456;2023-04-27T00:08:59;95627;;;1.6;87.3
56558;BME280;43358;50.356;12.456;2023-04-27T00:10:01;95628;;;1.6;87.4
56558;BME280;43358;50.356;12.456;2023-04-27T00:11:03;95630;;;1.6;87.6
56558;BME280;43358;50.356;12.456;2023-04-27T00:12:05;95629;;;1.6;87.6
56558;BME280;43358;50.356;12.456;2023-04-27T00:13:07;95628;;;1.6;87.6
56558;BME280;43358;50.356;12.456;2023-04-27T00:14:10;95626;;;1.6;87.4
56558;BME280;43358;50.356;12.456;2023-04-27T00:15:12;95626;;;1.6;87.6
56558;BME280;43358;50.356;12.456;2023-04-27T00:16:14;95624;;;1.6;87.7
56558;BME280;43358;50.356;12.456;2023-04-27T00:17:16;95620;;;1.7;87.4
56558;BME280;43358;50.356;12.456;2023-04-27T00:18:18;95624;;;1.7;87.6
56558;BME280;43358;50.356;12.456;2023-04-27T00:19:20;95623;;;1.7;87.2
56558;BME280;43358;50.356;12.456;2023-04-27T00:20:22;95621;;;1.7;87.2
56558;BME280;43358;50.356;12.456;2023-04-27T00:21:26;95622;;;1.7;87
56558;BME280;43358;50.356;12.456;2023-04-27T00:22:28;95620;;;1.7;87.1
56558;BME280;43358;50.356;12.456;2023-04-27T00:23:30;95623;;;1.7;87.1
56558;BME280;43358;50.356;12.456;2023-04-27T00:24:32;95620;;;1.7;87.1
56558;BME280;43358;50.356;12.456;2023-04-27T00:25:34;95622;;;1.7;87.1
56558;BME280;43358;50.356;12.456;2023-04-27T00:26:36;95620;;;1.7;87
56558;BME280;43358;50.356;12.456;2023-04-27T00:27:38;95622;;;1.7;86.7
56558;BME280;43358;50.356;12.456;2023-04-27T00:28:41;95619;;;1.7;87
56558;BME280;43358;50.356;12.456;2023-04-27T00:29:44;95621;;;1.6;87.1
56558;BME280;43358;50.356;12.456;2023-04-27T00:30:47;95619;;;1.6;86.9
56558;BME280;43358;50.356;12.456;2023-04-27T00:31:49;95622;;;1.6;87
56558;BME280;43358;50.356;12.456;2023-04-27T00:33:05;95620;;;1.6;87.2
56558;BME280;43358;50.356;12.456;2023-04-27T00:33:53;95620;;;1.6;87.4
56558;BME280;43358;50.356;12.456;2023-04-27T00:34:55;95617;;;1.6;87.4
56558;BME280;43358;50.356;12.456;2023-04-27T00:35:58;95618;;;1.6;87.6
56558;BME280;43358;50.356;12.456;2023-04-27T00:36:59;95617;;;1.6;87.7
56558;BME280;43358;50.356;12.456;2023-04-27T00:38:01;95616;;;1.6;87.4
56558;BME280;43358;50.356;12.456;2023-04-27T00:39:03;95619;;;1.6;87.2
56558;BME280;43358;50.356;12.456;2023-04-27T00:40:05;95617;;;1.6;87.4
56558;BME280;43358;50.356;12.456;2023-04-27T00:41:07;95620;;;1.6;87.6
56558;BME280;43358;50.356;12.456;2023-04-27T00:42:09;95619;;;1.6;87.6
56558;BME280;43358;50.356;12.456;2023-04-27T00:43:11;95618;;;1.6;87.4
56558;BME280;43358;50.356;12.456;2023-04-27T00:44:13;95618;;;1.6;87.3
56558;BME280;43358;50.356;12.456;2023-04-27T00:45:15;95620;;;1.6;87.3
56558;BME280;43358;50.356;12.456;2023-04-27T00:46:17;95620;;;1.6;87.3
56558;BME280;43358;50.356;12.456;2023-04-27T00:47:19;95620;;;1.6;87.2
56558;BME280;43358;50.356;12.456;2023-04-27T00:48:21;95620;;;1.6;87.2
56558;BME280;43358;50.356;12.456;2023-04-27T00:49:23;95618;;;1.6;87.3
56558;BME280;43358;50.356;12.456;2023-04-27T00:50:26;95617;;;1.6;87.3
56558;BME280;43358;50.356;12.456;2023-04-27T00:51:27;95617;;;1.6;87.2
56558;BME280;43358;50.356;12.456;2023-04-27T00:52:29;95619;;;1.6;87.2
56558;BME280;43358;50.356;12.456;2023-04-27T00:53:31;95618;;;1.6;87.3
56558;BME280;43358;50.356;12.456;2023-04-27T00:54:33;95622;;;1.6;87.3
56558;BME280;43358;50.356;12.456;2023-04-27T00:55:35;95621;;;1.6;87.3
56558;BME280;43358;50.356;12.456;2023-04-27T00:56:38;95621;;;1.6;87.2
56558;BME280;43358;50.356;12.456;2023-04-27T00:57:41;95621;;;1.6;87.1
56558;BME280;43358;50.356;12.456;2023-04-27T00:58:44;95621;;;1.6;87
56558;BME280;43358;50.356;12.456;2023-04-27T00:59:46;95624;;;1.6;87.2
56558;BME280;43358;50.356;12.456;2023-04-27T01:00:48;95625;;;1.6;87.6
56558;BME280;43358;50.356;12.456;2023-04-27T01:01:50;95626;;;1.6;87.7
56558;BME280;43358;50.356;12.456;2023-04-27T01:02:53;95626;;;1.6;87.2
56558;BME280;43358;50.356;12.456;2023-04-27T01:03:55;95625;;;1.5;87.2
56558;BME280;43358;50.356;12.456;2023-04-27T01:04:57;95623;;;1.5;87.4
56558;BME280;43358;50.356;12.456;2023-04-27T01:05:59;95621;;;1.5;87.2
56558;BME280;43358;50.356;12.456;2023-04-27T01:07:01;95624;;;1.5;86.9
56558;BME280;43358;50.356;12.456;2023-04-27T01:08:03;95624;;;1.5;86.8
56558;BME280;43358;50.356;12.456;2023-04-27T01:09:05;95621;;;1.5;87.1
56558;BME280;43358;50.356;12.456;2023-04-27T01:10:07;95619;;;1.5;87.3
56558;BME280;43358;50.356;12.456;2023-04-27T01:11:09;95621;;;1.4;87.4
56558;BME280;43358;50.356;12.456;2023-04-27T01:12:11;95622;;;1.4;88
56558;BME280;43358;50.356;12.456;2023-04-27T01:13:13;95620;;;1.4;88.6
56558;BME280;43358;50.356;12.456;2023-04-27T01:14:16;95620;;;1.4;88.7
56558;BME280;43358;50.356;12.456;2023-04-27T01:15:18;95620;;;1.4;88.5
56558;BME280;43358;50.356;12.456;2023-04-27T01:16:20;95620;;;1.4;88.2
56558;BME280;43358;50.356;12.456;2023-04-27T01:17:23;95619;;;1.5;87.9
56558;BME280;43358;50.356;12.456;2023-04-27T01:18:25;95622;;;1.5;87.4
56558;BME280;43358;50.356;12.456;2023-04-27T01:19:27;95621;;;1.5;87.3
56558;BME280;43358;50.356;12.456;2023-04-27T01:20:29;95625;;;1.5;87.4
56558;BME280;43358;50.356;12.456;2023-04-27T01:22:22;95626;;;1.4;87.8
56558;BME280;43358;50.356;12.456;2023-04-27T01:23:22;95624;;;1.4;88.3
56558;BME280;43358;50.356;12.456;2023-04-27T01:24:22;95626;;;1.4;88.4
56558;BME280;43358;50.356;12.456;2023-04-27T01:25:22;95626;;;1.3;88.8
56558;BME280;43358;50.356;12.456;2023-04-27T01:26:22;95626;;;1.3;89
56558;BME280;43358;50.356;12.456;2023-04-27T01:27:22;95625;;;1.3;89.1
56558;BME280;43358;50.356;12.456;2023-04-27T01:28:22;95629;;;1.3;89.2
56558;BME280;43358;50.356;12.456;2023-04-27T01:29:22;95624;;;1.3;89.2
56558;BME280;43358;50.356;12.456;2023-04-27T01:30:22;95627;;;1.3;89.1
56558;BME280;43358;50.356;12.456;2023-04-27T01:31:22;95626;;;1.3;89
56558;BME280;43358;50.356;12.456;2023-04-27T01:32:22;95626;;;1.3;89
56558;BME280;43358;50.356;12.456;2023-04-27T01:33:22;95626;;;1.3;88.9
56558;BME280;43358;50.356;12.456;2023-04-27T01:34:22;95625;;;1.2;88.9
56558;BME280;43358;50.356;12.456;2023-04-27T01:35:22;95627;;;1.2;88.9
56558;BME280;43358;50.356;12.456;2023-04-27T01:36:22;95625;;;1.3;89
56558;BME280;43358;50.356;12.456;2023-04-27T01:37:22;95625;;;1.2;89.2
56558;BME280;43358;50.356;12.456;2023-04-27T01:38:22;95625;;;1.2;89.2
56558;BME280;43358;50.356;12.456;2023-04-27T01:39:22;95622;;;1.2;89.1
56558;BME280;43358;50.356;12.456;2023-04-27T01:40:22;95625;;;1.2;89.2
56558;BME280;43358;50.356;12.456;2023-04-27T01:41:22;95627;;;1.2;89.4
56558;BME280;43358;50.356;12.456;2023-04-27T01:42:22;95625;;;1.2;89.5
56558;BME280;43358;50.356;12.456;2023-04-27T01:43:22;95629;;;1.2;89.6
56558;BME280;43358;50.356;12.456;2023-04-27T01:44:22;95629;;;1.2;89.6
56558;BME280;43358;50.356;12.456;2023-04-27T01:45:22;95628;;;1.3;89.3
56558;BME280;43358;50.356;12.456;2023-04-27T01:46:22;95628;;;1.3;89
56558;BME280;43358;50.356;12.456;2023-04-27T01:47:22;95629;;;1.3;88.7
56558;BME280;43358;50.356;12.456;2023-04-27T01:48:23;95630;;;1.2;88.6
56558;BME280;43358;50.356;12.456;2023-04-27T01:49:25;95629;;;1.2;88.8
56558;BME280;43358;50.356;12.456;2023-04-27T01:50:27;95630;;;1.2;89
56558;BME280;43358;50.356;12.456;2023-04-27T01:51:29;95631;;;1.2;89.1
56558;BME280;43358;50.356;12.456;2023-04-27T01:52:31;95626;;;1.2;89.3
56558;BME280;43358;50.356;12.456;2023-04-27T01:54:22;95628;;;1.2;89.4
56558;BME280;43358;50.356;12.456;2023-04-27T01:55:22;95630;;;1.2;89.6
56558;BME280;43358;50.356;12.456;2023-04-27T01:56:22;95628;;;1.2;89.8
56558;BME280;43358;50.356;12.456;2023-04-27T01:57:22;95629;;;1.2;89.6
56558;BME280;43358;50.356;12.456;2023-04-27T01:58:22;95633;;;1.2;89.6
56558;BME280;43358;50.356;12.456;2023-04-27T01:59:22;95631;;;1.2;89.6
56558;BME280;43358;50.356;12.456;2023-04-27T02:00:22;95630;;;1.2;89.5
56558;BME280;43358;50.356;12.456;2023-04-27T02:01:22;95630;;;1.2;89.4
56558;BME280;43358;50.356;12.456;2023-04-27T02:02:22;95628;;;1.2;89.1
56558;BME280;43358;50.356;12.456;2023-04-27T02:03:22;95629;;;1.2;89.2
56558;BME280;43358;50.356;12.456;2023-04-27T02:04:22;95631;;;1.2;89.3
56558;BME280;43358;50.356;12.456;2023-04-27T02:05:22;95632;;;1.2;89.7
56558;BME280;43358;50.356;12.456;2023-04-27T02:06:22;95628;;;1.2;89.8
56558;BME280;43358;50.356;12.456;2023-04-27T02:07:22;95626;;;1.2;89.8
56558;BME280;43358;50.356;12.456;2023-04-27T02:08:22;95631;;;1.2;89.9
56558;BME280;43358;50.356;12.456;2023-04-27T02:09:22;95632;;;1.2;89.9
56558;BME280;43358;50.356;12.456;2023-04-27T02:10:22;95632;;;1.2;90
56558;BME280;43358;50.356;12.456;2023-04-27T02:11:22;95634;;;1.2;89.9
56558;BME280;43358;50.356;12.456;2023-04-27T02:13:22;95635;;;1.2;89.9
56558;BME280;43358;50.356;12.456;2023-04-27T02:14:22;95635;;;1.2;89.8
56558;BME280;43358;50.356;12.456;2023-04-27T02:15:22;95637;;;1.2;89.9
56558;BME280;43358;50.356;12.456;2023-04-27T02:16:22;95634;;;1.2;89.8
56558;BME280;43358;50.356;12.456;2023-04-27T02:17:23;95634;;;1.2;89.8
56558;BME280;43358;50.356;12.456;2023-04-27T02:18:25;95636;;;1.2;89.5
56558;BME280;43358;50.356;12.456;2023-04-27T02:19:27;95637;;;1.2;89.1
56558;BME280;43358;50.356;12.456;2023-04-27T02:20:29;95639;;;1.2;89.1
56558;BME280;43358;50.356;12.456;2023-04-27T02:21:31;95640;;;1.2;89.1
56558;BME280;43358;50.356;12.456;2023-04-27T02:22:34;95639;;;1.2;89.3
56558;BME280;43358;50.356;12.456;2023-04-27T02:23:36;95638;;;1.2;89.3
56558;BME280;43358;50.356;12.456;2023-04-27T02:24:38;95640;;;1.2;89.2
56558;BME280;43358;50.356;12.456;2023-04-27T02:25:41;95638;;;1.2;89.3
56558;BME280;43358;50.356;12.456;2023-04-27T02:26:45;95638;;;1.2;89.4
56558;BME280;43358;50.356;12.456;2023-04-27T02:27:47;95643;;;1.2;89.4
56558;BME280;43358;50.356;12.456;2023-04-27T02:28:49;95643;;;1.3;89.4
56558;BME280;43358;50.356;12.456;2023-04-27T02:29:51;95641;;;1.2;89.3
56558;BME280;43358;50.356;12.456;2023-04-27T02:30:53;95641;;;1.3;89.3
56558;BME280;43358;50.356;12.456;2023-04-27T02:32:22;95644;;;1.3;89.4
56558;BME280;43358;50.356;12.456;2023-04-27T02:33:22;95645;;;1.3;89.5
56558;BME280;43358;50.356;12.456;2023-04-27T02:34:22;95646;;;1.3;89.4
56558;BME280;43358;50.356;12.456;2023-04-27T02:35:22;95645;;;1.3;89.2
56558;BME280;43358;50.356;12.456;2023-04-27T02:36:22;95645;;;1.2;89.2
56558;BME280;43358;50.356;12.456;2023-04-27T02:37:22;95643;;;1.3;89.3
56558;BME280;43358;50.356;12.456;2023-04-27T02:38:22;95646;;;1.3;89.4
56558;BME280;43358;50.356;12.456;2023-04-27T02:39:22;95646;;;1.2;89.4
56558;BME280;43358;50.356;12.456;2023-04-27T02:40:22;95647;;;1.3;89.3
56558;BME280;43358;50.356;12.456;2023-04-27T02:41:22;95645;;;1.3;89.4
56558;BME280;43358;50.356;12.456;2023-04-27T02:42:22;95646;;;1.3;89.5
56558;BME280;43358;50.356;12.456;2023-04-27T02:43:22;95645;;;1.3;89.6
56558;BME280;43358;50.356;12.456;2023-04-27T02:44:22;95642;;;1.3;89.6
56558;BME280;43358;50.356;12.456;2023-04-27T02:45:22;95646;;;1.3;89.5
56558;BME280;43358;50.356;12.456;2023-04-27T02:46:26;95648;;;1.3;89.5
56558;BME280;43358;50.356;12.456;2023-04-27T02:47:28;95646;;;1.3;89.2
56558;BME280;43358;50.356;12.456;2023-04-27T02:48:30;95650;;;1.3;89.2
56558;BME280;43358;50.356;12.456;2023-04-27T02:49:33;95648;;;1.3;89.2
56558;BME280;43358;50.356;12.456;2023-04-27T02:50:38;95648;;;1.3;89.3
56558;BME280;43358;50.356;12.456;2023-04-27T02:51:37;95646;;;1.3;89.4
56558;BME280;43358;50.356;12.456;2023-04-27T02:52:39;95652;;;1.3;89.4
56558;BME280;43358;50.356;12.456;2023-04-27T02:53:41;95646;;;1.3;89.5
56558;BME280;43358;50.356;12.456;2023-04-27T02:54:45;95649;;;1.2;89.6
56558;BME280;43358;50.356;12.456;2023-04-27T02:55:47;95647;;;1.3;89.7
56558;BME280;43358;50.356;12.456;2023-04-27T02:56:49;95649;;;1.3;89.6
56558;BME280;43358;50.356;12.456;2023-04-27T02:57:51;95651;;;1.3;89.6
56558;BME280;43358;50.356;12.456;2023-04-27T02:58:53;95652;;;1.3;89.8
56558;BME280;43358;50.356;12.456;2023-04-27T02:59:55;95650;;;1.2;89.6
56558;BME280;43358;50.356;12.456;2023-04-27T03:00:57;95651;;;1.2;89.5
56558;BME280;43358;50.356;12.456;2023-04-27T03:01:59;95651;;;1.2;89.7
56558;BME280;43358;50.356;12.456;2023-04-27T03:03:01;95656;;;1.2;89.7
56558;BME280;43358;50.356;12.456;2023-04-27T03:04:03;95655;;;1.2;89.8
56558;BME280;43358;50.356;12.456;2023-04-27T03:05:05;95655;;;1.2;89.7
56558;BME280;43358;50.356;12.456;2023-04-27T03:06:07;95652;;;1.2;89.6
56558;BME280;43358;50.356;12.456;2023-04-27T03:07:09;95653;;;1.2;89.6
56558;BME280;43358;50.356;12.456;2023-04-27T03:08:11;95653;;;1.2;89.7
56558;BME280;43358;50.356;12.456;2023-04-27T03:09:13;95652;;;1.1;89.8
56558;BME280;43358;50.356;12.456;2023-04-27T03:10:15;95652;;;1.2;89.5
56558;BME280;43358;50.356;12.456;2023-04-27T03:11:17;95652;;;1.2;89.4
56558;BME280;43358;50.356;12.456;2023-04-27T03:12:19;95652;;;1.1;89.5
56558;BME280;43358;50.356;12.456;2023-04-27T03:13:21;95654;;;1.1;89.6
56558;BME280;43358;50.356;12.456;2023-04-27T03:14:23;95652;;;1.1;89.9
56558;BME280;43358;50.356;12.456;2023-04-27T03:15:25;95654;;;1.1;89.9
56558;BME280;43358;50.356;12.456;2023-04-27T03:16:27;95651;;;1.1;89.9
56558;BME280;43358;50.356;12.456;2023-04-27T03:17:29;95653;;;1.1;90
56558;BME280;43358;50.356;12.456;2023-04-27T03:18:31;95654;;;1.1;90.1
56558;BME280;43358;50.356;12.456;2023-04-27T03:19:33;95656;;;1.1;90
56558;BME280;43358;50.356;12.456;2023-04-27T03:20:35;95658;;;1.1;89.9
56558;BME280;43358;50.356;12.456;2023-04-27T03:21:37;95662;;;1.1;90
56558;BME280;43358;50.356;12.456;2023-04-27T03:22:39;95660;;;1.1;90
56558;BME280;43358;50.356;12.456;2023-04-27T03:23:41;95666;;;1.1;90.1
56558;BME280;43358;50.356;12.456;2023-04-27T03:24:45;95660;;;1.1;90.1
56558;BME280;43358;50.356;12.456;2023-04-27T03:25:47;95662;;;1.1;90.1
56558;BME280;43358;50.356;12.456;2023-04-27T03:26:49;95664;;;1.1;90.3
56558;BME280;43358;50.356;12.456;2023-04-27T03:27:51;95664;;;1.1;90.3
56558;BME280;43358;50.356;12.456;2023-04-27T03:28:54;95663;;;1.1;90.3
56558;BME280;43358;50.356;12.456;2023-04-27T03:29:56;95663;;;1.1;90.5
56558;BME280;43358;50.356;12.456;2023-04-27T03:30:58;95664;;;1.1;90.5
56558;BME280;43358;50.356;12.456;2023-04-27T03:32:00;95665;;;1.1;90.7
56558;BME280;43358;50.356;12.456;2023-04-27T03:33:02;95666;;;1.1;90.6
56558;BME280;43358;50.356;12.456;2023-04-27T03:34:04;95664;;;1.1;90.6
56558;BME280;43358;50.356;12.456;2023-04-27T03:35:06;95666;;;1.1;90.6
56558;BME280;43358;50.356;12.456;2023-04-27T03:36:08;95667;;;1.2;90.3
56558;BME280;43358;50.356;12.456;2023-04-27T03:37:10;95669;;;1.2;90.6
56558;BME280;43358;50.356;12.456;2023-04-27T03:38:12;95672;;;1.2;90
56558;BME280;43358;50.356;12.456;2023-04-27T03:39:14;95670;;;1.2;89.7
56558;BME280;43358;50.356;12.456;2023-04-27T03:40:16;95670;;;1.2;89.9
56558;BME280;43358;50.356;12.456;2023-04-27T03:41:18;95674;;;1.2;90.1
56558;BME280;43358;50.356;12.456;2023-04-27T03:42:20;95677;;;1.2;90.2
56558;BME280;43358;50.356;12.456;2023-04-27T03:43:22;95675;;;1.2;90.3
56558;BME280;43358;50.356;12.456;2023-04-27T03:44:25;95677;;;1.1;90.6
56558;BME280;43358;50.356;12.456;2023-04-27T03:45:27;95680;;;1.2;90.7
56558;BME280;43358;50.356;12.456;2023-04-27T03:46:29;95681;;;1.2;90.8
56558;BME280;43358;50.356;12.456;2023-04-27T03:47:31;95685;;;1.2;90.8
56558;BME280;43358;50.356;12.456;2023-04-27T03:48:33;95683;;;1.2;90.8
56558;BME280;43358;50.356;12.456;2023-04-27T03:49:35;95683;;;1.2;90.9
56558;BME280;43358;50.356;12.456;2023-04-27T03:50:37;95685;;;1.2;90.6
56558;BME280;43358;50.356;12.456;2023-04-27T03:51:39;95684;;;1.2;90.7
56558;BME280;43358;50.356;12.456;2023-04-27T03:52:41;95681;;;1.2;90.6
56558;BME280;43358;50.356;12.456;2023-04-27T03:53:45;95684;;;1.2;90.6
56558;BME280;43358;50.356;12.456;2023-04-27T03:54:47;95684;;;1.2;90.6
56558;BME280;43358;50.356;12.456;2023-04-27T03:55:49;95683;;;1.2;90.6
56558;BME280;43358;50.356;12.456;2023-04-27T03:56:51;95684;;;1.2;90.5
56558;BME280;43358;50.356;12.456;2023-04-27T03:57:53;95685;;;1.2;90.5
56558;BME280;43358;50.356;12.456;2023-04-27T03:58:55;95686;;;1.2;90.3
56558;BME280;43358;50.356;12.456;2023-04-27T03:59:57;95687;;;1.2;90.7
56558;BME280;43358;50.356;12.456;2023-04-27T04:00:59;95690;;;1.2;90.9
56558;BME280;43358;50.356;12.456;2023-04-27T04:02:01;95691;;;1.1;91.1
56558;BME280;43358;50.356;12.456;2023-04-27T04:03:03;95694;;;1.2;91.2
56558;BME280;43358;50.356;12.456;2023-04-27T04:04:05;95694;;;1.1;91.5
56558;BME280;43358;50.356;12.456;2023-04-27T04:05:07;95693;;;1.1;91.5
56558;BME280;43358;50.356;12.456;2023-04-27T04:06:09;95695;;;1.1;91.4
56558;BME280;43358;50.356;12.456;2023-04-27T04:07:11;95695;;;1.1;91.4
56558;BME280;43358;50.356;12.456;2023-04-27T04:08:13;95694;;;1.1;91.4
56558;BME280;43358;50.356;12.456;2023-04-27T04:09:15;95695;;;1.1;91.4
56558;BME280;43358;50.356;12.456;2023-04-27T04:10:18;95696;;;1.1;91.5
56558;BME280;43358;50.356;12.456;2023-04-27T04:11:20;95694;;;1.1;91.6
56558;BME280;43358;50.356;12.456;2023-04-27T04:12:22;95699;;;1.2;91.7
56558;BME280;43358;50.356;12.456;2023-04-27T04:13:26;95696;;;1.2;91.7
56558;BME280;43358;50.356;12.456;2023-04-27T04:14:28;95697;;;1.2;91.7
56558;BME280;43358;50.356;12.456;2023-04-27T04:15:30;95699;;;1.2;91.6
56558;BME280;43358;50.356;12.456;2023-04-27T04:16:32;95697;;;1.2;91.5
56558;BME280;43358;50.356;12.456;2023-04-27T04:17:34;95696;;;1.2;91.3
56558;BME280;43358;50.356;12.456;2023-04-27T04:18:36;95697;;;1.2;91.4
56558;BME280;43358;50.356;12.456;2023-04-27T04:19:38;95698;;;1.2;91.3
56558;BME280;43358;50.356;12.456;2023-04-27T04:20:41;95696;;;1.2;91.3
56558;BME280;43358;50.356;12.456;2023-04-27T04:21:44;95695;;;1.2;91.2
56558;BME280;43358;50.356;12.456;2023-04-27T04:22:46;95694;;;1.2;91.2
56558;BME280;43358;50.356;12.456;2023-04-27T04:23:48;95697;;;1.2;91.2
56558;BME280;43358;50.356;12.456;2023-04-27T04:24:50;95699;;;1.2;91.1
56558;BME280;43358;50.356;12.456;2023-04-27T04:25:52;95696;;;1.3;90.9
56558;BME280;43358;50.356;12.456;2023-04-27T04:26:54;95700;;;1.3;90.7
56558;BME280;43358;50.356;12.456;2023-04-27T04:27:56;95704;;;1.3;91
56558;BME280;43358;50.356;12.456;2023-04-27T04:28:58;95703;;;1.3;91.2
56558;BME280;43358;50.356;12.456;2023-04-27T04:30:00;95701;;;1.3;91.2
56558;BME280;43358;50.356;12.456;2023-04-27T04:31:02;95703;;;1.3;91.2
56558;BME280;43358;50.356;12.456;2023-04-27T04:32:04;95703;;;1.3;91.1
56558;BME280;43358;50.356;12.456;2023-04-27T04:33:06;95701;;;1.3;90.9
56558;BME280;43358;50.356;12.456;2023-04-27T04:34:08;95704;;;1.3;91
56558;BME280;43358;50.356;12.456;2023-04-27T04:35:11;95706;;;1.3;91.1
56558;BME280;43358;50.356;12.456;2023-04-27T04:36:13;95705;;;1.3;91.1
56558;BME280;43358;50.356;12.456;2023-04-27T04:37:15;95706;;;1.3;91.1
56558;BME280;43358;50.356;12.456;2023-04-27T04:38:17;95708;;;1.3;91.1
56558;BME280;43358;50.356;12.456;2023-04-27T04:39:19;95708;;;1.3;91
56558;BME280;43358;50.356;12.456;2023-04-27T04:40:21;95707;;;1.3;91
56558;BME280;43358;50.356;12.456;2023-04-27T04:41:23;95708;;;1.4;90.3
56558;BME280;43358;50.356;12.456;2023-04-27T04:42:25;95705;;;1.4;90.3
56558;BME280;43358;50.356;12.456;2023-04-27T04:43:27;95705;;;1.4;90.6
56558;BME280;43358;50.356;12.456;2023-04-27T04:44:29;95708;;;1.3;90.8
56558;BME280;43358;50.356;12.456;2023-04-27T04:45:31;95708;;;1.3;90.9
56558;BME280;43358;50.356;12.456;2023-04-27T04:46:33;95706;;;1.3;91
56558;BME280;43358;50.356;12.456;2023-04-27T04:47:35;95707;;;1.3;91.1
56558;BME280;43358;50.356;12.456;2023-04-27T04:48:38;95708;;;1.3;91.2
56558;BME280;43358;50.356;12.456;2023-04-27T04:49:41;95710;;;1.3;91.2
56558;BME280;43358;50.356;12.456;2023-04-27T04:50:44;95713;;;1.3;91.2
56558;BME280;43358;50.356;12.456;2023-04-27T04:51:46;95715;;;1.3;91.3
56558;BME280;43358;50.356;12.456;2023-04-27T04:52:48;95715;;;1.4;91.2
56558;BME280;43358;50.356;12.456;2023-04-27T04:53:50;95715;;;1.4;91.2
56558;BME280;43358;50.356;12.456;2023-04-27T04:55:22;95713;;;1.4;91.3
56558;BME280;43358;50.356;12.456;2023-04-27T04:56:22;95714;;;1.4;90.9
56558;BME280;43358;50.356;12.456;2023-04-27T04:57:22;95712;;;1.4;90.9
56558;BME280;43358;50.356;12.456;2023-04-27T04:58:22;95714;;;1.4;91
56558;BME280;43358;50.356;12.456;2023-04-27T04:59:22;95717;;;1.4;91.1
56558;BME280;43358;50.356;12.456;2023-04-27T05:00:22;95718;;;1.4;91.2
56558;BME280;43358;50.356;12.456;2023-04-27T05:01:22;95719;;;1.4;91.3
56558;BME280;43358;50.356;12.456;2023-04-27T05:02:22;95720;;;1.4;90.9
56558;BME280;43358;50.356;12.456;2023-04-27T05:03:22;95718;;;1.4;90.8
56558;BME280;43358;50.356;12.456;2023-04-27T05:04:22;95718;;;1.4;90.9
56558;BME280;43358;50.356;12.456;2023-04-27T05:05:22;95718;;;1.5;90.8
56558;BME280;43358;50.356;12.456;2023-04-27T05:06:22;95716;;;1.4;90.5
56558;BME280;43358;50.356;12.456;2023-04-27T05:07:22;95719;;;1.5;90.5
56558;BME280;43358;50.356;12.456;2023-04-27T05:08:22;95721;;;1.5;90.5
56558;BME280;43358;50.356;12.456;2023-04-27T05:09:22;95724;;;1.4;90.7
56558;BME280;43358;50.356;12.456;2023-04-27T05:10:22;95722;;;1.4;90.8
56558;BME280;43358;50.356;12.456;2023-04-27T05:11:26;95726;;;1.5;91
56558;BME280;43358;50.356;12.456;2023-04-27T05:12:28;95725;;;1.5;91.1
56558;BME280;43358;50.356;12.456;2023-04-27T05:13:30;95727;;;1.5;90.7
56558;BME280;43358;50.356;12.456;2023-04-27T05:14:32;95729;;;1.5;90.6
56558;BME280;43358;50.356;12.456;2023-04-27T05:15:35;95727;;;1.5;90.8
56558;BME280;43358;50.356;12.456;2023-04-27T05:16:36;95728;;;1.5;90.6
56558;BME280;43358;50.356;12.456;2023-04-27T05:17:38;95725;;;1.5;90.4
56558;BME280;43358;50.356;12.456;2023-04-27T05:18:41;95725;;;1.5;90.6
56558;BME280;43358;50.356;12.456;2023-04-27T05:19:44;95724;;;1.5;90.7
56558;BME280;43358;50.356;12.456;2023-04-27T05:20:46;95727;;;1.5;90.7
56558;BME280;43358;50.356;12.456;2023-04-27T05:21:48;95725;;;1.5;90.5
56558;BME280;43358;50.356;12.456;2023-04-27T05:22:50;95724;;;1.5;90.4
56558;BME280;43358;50.356;12.456;2023-04-27T05:23:52;95718;;;1.5;90.6
56558;BME280;43358;50.356;12.456;2023-04-27T05:24:54;95718;;;1.6;90.3
56558;BME280;43358;50.356;12.456;2023-04-27T05:25:56;95716;;;1.6;89.3
56558;BME280;43358;50.356;12.456;2023-04-27T05:26:58;95710;;;1.6;89.2
56558;BME280;43358;50.356;12.456;2023-04-27T05:28:00;95706;;;1.6;89.3
56558;BME280;43358;50.356;12.456;2023-04-27T05:29:02;95707;;;1.6;89.4
56558;BME280;43358;50.356;12.456;2023-04-27T05:30:04;95706;;;1.6;89.6
56558;BME280;43358;50.356;12.456;2023-04-27T05:31:06;95709;;;1.6;90.3
56558;BME280;43358;50.356;12.456;2023-04-27T05:32:08;95707;;;1.6;90
56558;BME280;43358;50.356;12.456;2023-04-27T05:33:10;95706;;;1.6;90
56558;BME280;43358;50.356;12.456;2023-04-27T05:34:12;95707;;;1.6;90
56558;BME280;43358;50.356;12.456;2023-04-27T05:35:14;95702;;;1.6;90
56558;BME280;43358;50.356;12.456;2023-04-27T05:36:16;95702;;;1.6;90.2
56558;BME280;43358;50.356;12.456;2023-04-27T05:37:18;95703;;;1.6;90.2
56558;BME280;43358;50.356;12.456;2023-04-27T05:38:20;95703;;;1.6;90.3
56558;BME280;43358;50.356;12.456;2023-04-27T05:39:22;95707;;;1.7;90.1
56558;BME280;43358;50.356;12.456;2023-04-27T05:40:26;95706;;;1.7;90
56558;BME280;43358;50.356;12.456;2023-04-27T05:41:29;95705;;;1.7;89.9
56558;BME280;43358;50.356;12.456;2023-04-27T05:42:31;95707;;;1.7;89.9
56558;BME280;43358;50.356;12.456;2023-04-27T05:43:33;95706;;;1.7;89.9
56558;BME280;43358;50.356;12.456;2023-04-27T05:44:35;95702;;;1.8;90
56558;BME280;43358;50.356;12.456;2023-04-27T05:45:37;95704;;;1.8;89.9
56558;BME280;43358;50.356;12.456;2023-04-27T05:46:39;95705;;;1.8;90.1
56558;BME280;43358;50.356;12.456;2023-04-27T05:47:41;95707;;;1.9;90
56558;BME280;43358;50.356;12.456;2023-04-27T05:48:43;95709;;;1.9;89.7
56558;BME280;43358;50.356;12.456;2023-04-27T05:49:48;95713;;;1.9;88.8
56558;BME280;43358;50.356;12.456;2023-04-27T05:50:47;95712;;;1.9;88.8
56558;BME280;43358;50.356;12.456;2023-04-27T05:51:49;95711;;;1.9;88.5
56558;BME280;43358;50.356;12.456;2023-04-27T05:52:51;95711;;;2;88.4
56558;BME280;43358;50.356;12.456;2023-04-27T05:53:53;95707;;;2;88.1
56558;BME280;43358;50.356;12.456;2023-04-27T05:54:55;95708;;;2;88.2